Time;durP1;ratioP1;P1;durP2;ratioP2;P2;SDS_P1;SDS_P2;PMS_P1;PMS_P2;Temp;Humidity;BMP_temperature;BMP_pressure;BME280_temperature;BME280_humidity;BME280_pressure;Samples;Min_cycle;Max_cycle;Signal;HPM_P1;HPM_P2
2021/05/09 00:02:26;;;;;;;8.90;7.55;;;13.30;82.10;;;;;;5050329;28;20438;-91
2021/05/09 00:04:55;;;;;;;9.48;7.05;;;13.20;82.20;;;;;;5034293;28;20068;-77
2021/05/09 00:07:20;;;;;;;10.60;7.15;;;13.20;82.20;;;;;;5051582;28;20069;-77
2021/05/09 00:09:47;;;;;;;7.53;6.38;;;13.20;81.90;;;;;;5050201;28;20083;-77
2021/05/09 00:12:15;;;;;;;10.52;7.13;;;13.20;81.70;;;;;;5050099;28;20400;-76
2021/05/09 00:14:41;;;;;;;8.93;6.97;;;13.20;81.80;;;;;;5051463;28;20120;-77
2021/05/09 00:17:06;;;;;;;8.38;7.47;;;13.20;81.80;;;;;;5052290;28;20439;-77
2021/05/09 00:19:32;;;;;;;11.07;7.28;;;13.20;81.80;;;;;;5052648;28;20404;-77
2021/05/09 00:21:58;;;;;;;8.52;6.15;;;13.20;82.00;;;;;;5050899;28;20541;-77
2021/05/09 00:24:24;;;;;;;9.02;7.35;;;13.20;81.80;;;;;;5053011;28;20126;-76
2021/05/09 00:27:10;;;;;;;9.73;7.25;;;13.20;82.00;;;;;;5038160;28;20056;-76
2021/05/09 00:29:35;;;;;;;8.68;6.20;;;13.20;82.10;;;;;;5051558;28;20045;-78
2021/05/09 00:32:03;;;;;;;9.75;6.55;;;13.20;81.90;;;;;;5054617;28;20048;-78
2021/05/09 00:34:28;;;;;;;8.48;7.20;;;13.20;82.00;;;;;;5056410;28;20049;-78
2021/05/09 00:36:54;;;;;;;9.32;6.95;;;13.20;82.00;;;;;;5056413;28;20346;-77
2021/05/09 00:39:29;;;;;;;9.07;7.55;;;13.20;82.00;;;;;;5057104;28;20102;-76
2021/05/09 00:42:05;;;;;;;10.77;8.02;;;13.20;82.10;;;;;;5057177;28;20548;-78
2021/05/09 00:44:31;;;;;;;9.38;6.82;;;13.30;82.20;;;;;;5057141;28;20045;-77
2021/05/09 00:46:57;;;;;;;10.20;7.28;;;13.30;82.20;;;;;;5056063;28;20198;-75
2021/05/09 00:49:23;;;;;;;10.25;7.35;;;13.30;82.20;;;;;;5056481;28;20049;-75
2021/05/09 00:51:48;;;;;;;9.93;7.18;;;13.30;82.00;;;;;;5054259;28;20498;-75
2021/05/09 00:54:19;;;;;;;10.27;7.15;;;13.30;81.90;;;;;;5054759;28;20478;-76
2021/05/09 00:56:46;;;;;;;11.48;6.75;;;13.30;81.60;;;;;;5054369;28;20037;-76
2021/05/09 00:59:13;;;;;;;8.35;7.03;;;13.30;81.50;;;;;;5039611;28;20477;-76
2021/05/09 01:01:41;;;;;;;9.77;6.80;;;13.30;81.40;;;;;;5038293;28;20401;-77
2021/05/09 01:04:13;;;;;;;10.63;6.88;;;13.30;81.50;;;;;;5039126;28;20049;-77
2021/05/09 01:06:39;;;;;;;9.23;6.82;;;13.30;81.30;;;;;;5055957;28;20444;-77
2021/05/09 01:09:06;;;;;;;8.88;6.45;;;13.30;81.30;;;;;;5055511;28;20041;-76
2021/05/09 01:11:35;;;;;;;9.23;7.53;;;13.30;81.30;;;;;;5056576;28;20098;-77
2021/05/09 01:14:01;;;;;;;7.75;6.95;;;13.30;81.30;;;;;;5034041;28;20131;-74
2021/05/09 01:16:28;;;;;;;7.97;7.00;;;13.30;81.30;;;;;;5034433;28;20060;-77
2021/05/09 01:18:54;;;;;;;7.88;5.95;;;13.20;81.30;;;;;;5034155;28;20049;-76
2021/05/09 01:21:20;;;;;;;10.50;7.03;;;13.20;81.10;;;;;;5033894;28;20076;-75
2021/05/09 01:23:45;;;;;;;7.93;7.03;;;13.20;81.00;;;;;;5033491;28;20116;-78
2021/05/09 01:26:11;;;;;;;9.57;6.80;;;13.20;81.10;;;;;;5017247;28;20404;-76
2021/05/09 01:28:38;;;;;;;7.82;6.70;;;13.20;81.00;;;;;;5033098;28;20188;-78
2021/05/09 01:31:08;;;;;;;10.07;7.35;;;13.10;81.00;;;;;;5017198;28;20053;-77
2021/05/09 01:33:34;;;;;;;12.15;7.63;;;13.10;81.00;;;;;;5033481;28;20157;-76
2021/05/09 01:36:00;;;;;;;10.10;6.85;;;13.10;80.90;;;;;;5032499;28;20096;-76
2021/05/09 01:38:26;;;;;;;11.77;7.38;;;13.10;80.90;;;;;;5017175;28;20046;-76
2021/05/09 01:40:52;;;;;;;8.70;6.65;;;13.00;80.90;;;;;;5032406;28;20046;-76
2021/05/09 01:43:18;;;;;;;10.00;6.93;;;13.00;80.90;;;;;;5016838;28;20065;-77
2021/05/09 01:45:43;;;;;;;8.70;7.25;;;13.00;80.90;;;;;;5050562;28;20084;-77
2021/05/09 01:48:09;;;;;;;8.80;6.63;;;13.00;80.90;;;;;;5055350;28;20049;-77
2021/05/09 01:50:35;;;;;;;8.95;7.40;;;13.00;81.00;;;;;;5054108;28;20041;-76
2021/05/09 01:53:01;;;;;;;9.25;6.90;;;12.90;80.90;;;;;;5037400;28;20045;-77
2021/05/09 01:55:30;;;;;;;10.48;7.43;;;12.90;81.00;;;;;;5055724;28;20048;-75
2021/05/09 01:57:56;;;;;;;10.55;7.07;;;12.90;81.10;;;;;;5053778;28;20041;-77
2021/05/09 02:00:22;;;;;;;9.65;7.15;;;12.90;81.10;;;;;;5055900;28;20450;-77
2021/05/09 02:02:48;;;;;;;8.30;6.85;;;12.80;81.10;;;;;;5053516;28;20102;-77
2021/05/09 02:05:16;;;;;;;10.05;7.20;;;12.80;81.00;;;;;;5053906;28;20045;-76
2021/05/09 02:08:02;;;;;;;9.13;7.07;;;12.80;81.10;;;;;;5054418;28;20473;-77
2021/05/09 02:10:28;;;;;;;8.20;7.40;;;12.80;81.10;;;;;;5037759;28;20513;-75
2021/05/09 02:12:56;;;;;;;9.63;7.00;;;12.70;81.00;;;;;;5055496;28;20565;-76
2021/05/09 02:15:22;;;;;;;8.32;7.22;;;12.70;81.00;;;;;;5054745;28;20043;-75
2021/05/09 02:17:48;;;;;;;11.10;6.70;;;12.70;81.00;;;;;;5053553;28;20055;-77
2021/05/09 02:20:14;;;;;;;10.43;7.68;;;12.70;81.00;;;;;;5054836;28;20037;-80
2021/05/09 02:22:40;;;;;;;8.45;7.20;;;12.70;81.00;;;;;;5053583;28;20048;-77
2021/05/09 02:25:07;;;;;;;9.48;6.45;;;12.70;81.00;;;;;;5053647;28;20045;-76
2021/05/09 02:27:33;;;;;;;11.30;7.75;;;12.60;81.00;;;;;;5055151;28;20041;-75
2021/05/09 02:29:59;;;;;;;10.48;7.10;;;12.60;81.00;;;;;;5069656;28;20052;-75
2021/05/09 02:32:25;;;;;;;9.98;7.40;;;12.60;81.00;;;;;;5053331;28;20041;-76
2021/05/09 02:34:50;;;;;;;9.10;6.93;;;12.60;81.10;;;;;;5054234;28;20486;-77
2021/05/09 02:37:16;;;;;;;8.15;7.25;;;12.50;81.10;;;;;;5052971;28;20092;-75
2021/05/09 02:39:45;;;;;;;9.40;7.15;;;12.50;81.00;;;;;;5054620;28;20075;-76
2021/05/09 02:42:10;;;;;;;9.63;7.07;;;12.50;81.00;;;;;;5054103;28;20179;-77
2021/05/09 02:44:38;;;;;;;8.27;6.13;;;12.50;80.80;;;;;;5054996;28;20050;-76
2021/05/09 02:47:04;;;;;;;8.82;6.40;;;12.50;80.90;;;;;;5069798;28;20049;-77
2021/05/09 02:49:30;;;;;;;10.02;7.13;;;12.40;80.80;;;;;;5054313;28;20045;-76
2021/05/09 02:51:56;;;;;;;8.60;6.53;;;12.40;80.90;;;;;;5052386;28;20124;-76
2021/05/09 02:54:21;;;;;;;7.00;6.30;;;12.40;80.90;;;;;;5068903;28;20061;-74
2021/05/09 02:56:47;;;;;;;8.77;6.55;;;12.30;80.80;;;;;;5054367;28;20052;-77
2021/05/09 02:59:13;;;;;;;8.48;6.13;;;12.30;80.80;;;;;;5054442;28;20048;-77
2021/05/09 03:01:39;;;;;;;9.43;6.95;;;12.30;80.90;;;;;;5036304;28;20447;-76
2021/05/09 03:04:05;;;;;;;8.52;6.70;;;12.30;81.00;;;;;;5052352;28;20505;-77
2021/05/09 03:06:31;;;;;;;7.88;6.18;;;12.30;81.00;;;;;;5054438;28;20506;-77
2021/05/09 03:08:57;;;;;;;9.73;6.80;;;12.20;80.90;;;;;;5035260;28;20041;-77
2021/05/09 03:11:27;;;;;;;8.48;6.70;;;12.20;80.90;;;;;;5053045;28;20056;-76
2021/05/09 03:13:53;;;;;;;8.85;6.82;;;12.20;81.00;;;;;;5053574;28;20048;-76
2021/05/09 03:16:19;;;;;;;9.95;7.32;;;12.20;81.00;;;;;;5053138;28;20079;-76
2021/05/09 03:18:45;;;;;;;8.70;6.50;;;12.20;81.00;;;;;;5053425;28;20060;-74
2021/05/09 03:21:10;;;;;;;7.78;6.97;;;12.20;81.00;;;;;;5053169;28;20060;-75
2021/05/09 03:23:36;;;;;;;11.35;7.32;;;12.10;81.00;;;;;;5052261;28;20044;-77
2021/05/09 03:26:02;;;;;;;7.72;6.93;;;12.10;81.10;;;;;;5051684;28;20131;-76
2021/05/09 03:28:28;;;;;;;8.57;6.75;;;12.10;81.20;;;;;;5035990;28;20044;-75
2021/05/09 03:30:53;;;;;;;9.38;6.97;;;12.10;81.20;;;;;;5053679;28;20048;-76
2021/05/09 03:33:19;;;;;;;9.32;6.90;;;12.10;81.20;;;;;;5053627;28;20061;-76
2021/05/09 03:35:45;;;;;;;7.97;6.80;;;12.10;81.20;;;;;;5069068;28;20057;-78
2021/05/09 03:38:11;;;;;;;7.55;6.78;;;12.10;81.20;;;;;;5051716;28;20118;-76
2021/05/09 03:40:40;;;;;;;8.10;6.30;;;12.10;81.20;;;;;;5053257;28;20486;-76
2021/05/09 03:43:06;;;;;;;9.32;7.28;;;12.10;81.20;;;;;;5053272;28;20041;-76
2021/05/09 03:45:31;;;;;;;8.32;6.53;;;12.10;81.20;;;;;;5053497;28;20041;-77
2021/05/09 03:47:57;;;;;;;8.95;6.53;;;12.00;81.20;;;;;;5052840;28;20053;-78
2021/05/09 03:50:25;;;;;;;9.48;7.22;;;12.00;81.20;;;;;;5051455;28;20049;-75
2021/05/09 03:52:54;;;;;;;8.88;6.45;;;12.00;81.10;;;;;;5052413;28;20037;-77
2021/05/09 03:55:21;;;;;;;7.78;7.00;;;12.00;81.10;;;;;;5052874;28;20063;-76
2021/05/09 03:57:47;;;;;;;10.63;7.57;;;12.00;81.10;;;;;;5036000;28;20497;-77
2021/05/09 04:00:14;;;;;;;8.32;7.15;;;12.00;81.10;;;;;;5053271;28;20378;-76
2021/05/09 04:02:40;;;;;;;11.57;6.70;;;11.90;81.20;;;;;;5052521;28;20052;-76
2021/05/09 04:05:07;;;;;;;9.20;6.85;;;11.90;81.20;;;;;;5037315;28;20072;-75
2021/05/09 04:07:32;;;;;;;10.10;7.43;;;11.90;81.20;;;;;;5040361;28;20135;-76
2021/05/09 04:09:58;;;;;;;8.68;6.88;;;11.90;81.20;;;;;;5057801;28;20079;-76
2021/05/09 04:12:24;;;;;;;8.30;7.20;;;11.90;81.20;;;;;;5038434;28;20052;-77
2021/05/09 04:14:49;;;;;;;7.38;6.57;;;11.90;81.10;;;;;;5057474;28;20142;-77
2021/05/09 04:17:15;;;;;;;8.00;7.20;;;11.90;81.30;;;;;;5057296;28;20083;-77
2021/05/09 04:19:41;;;;;;;8.25;6.78;;;11.90;81.30;;;;;;5056339;28;20076;-77
2021/05/09 04:22:07;;;;;;;8.38;6.63;;;11.80;81.20;;;;;;5072469;28;20102;-77
2021/05/09 04:24:35;;;;;;;7.30;6.55;;;11.80;81.20;;;;;;5057776;28;20094;-76
2021/05/09 04:27:01;;;;;;;8.38;7.38;;;11.80;81.20;;;;;;5039681;28;20044;-77
2021/05/09 04:29:27;;;;;;;9.43;6.95;;;11.80;81.10;;;;;;5055703;28;20087;-76
2021/05/09 04:31:53;;;;;;;9.27;7.15;;;11.80;81.10;;;;;;5056868;28;20459;-75
2021/05/09 04:34:20;;;;;;;8.13;6.72;;;11.80;81.20;;;;;;5055520;28;20053;-76
2021/05/09 04:36:46;;;;;;;7.50;6.25;;;11.80;81.10;;;;;;5057571;28;20067;-77
2021/05/09 04:39:12;;;;;;;9.63;7.65;;;11.80;81.30;;;;;;5056690;28;20123;-81
2021/05/09 04:41:37;;;;;;;9.88;6.68;;;11.80;81.30;;;;;;5039120;28;20409;-78
2021/05/09 04:44:04;;;;;;;9.80;6.82;;;11.80;81.50;;;;;;5055174;28;20420;-75
2021/05/09 04:46:29;;;;;;;11.38;6.68;;;11.80;81.50;;;;;;5056600;28;20439;-75
2021/05/09 04:48:55;;;;;;;8.43;6.88;;;11.80;81.60;;;;;;5056317;28;20056;-77
2021/05/09 04:51:21;;;;;;;11.02;7.57;;;11.80;81.60;;;;;;5055112;28;20439;-74
2021/05/09 04:53:47;;;;;;;9.98;7.10;;;11.80;81.60;;;;;;5056322;28;20071;-75
2021/05/09 04:56:12;;;;;;;8.88;6.75;;;11.90;81.80;;;;;;5055983;28;20076;-76
2021/05/09 04:58:39;;;;;;;10.10;7.22;;;11.90;81.80;;;;;;5054418;28;20068;-77
2021/05/09 05:01:07;;;;;;;10.05;7.43;;;11.80;81.60;;;;;;5056228;28;20487;-76
2021/05/09 05:03:33;;;;;;;7.90;6.97;;;11.90;81.60;;;;;;5056055;28;20493;-77
2021/05/09 05:05:59;;;;;;;9.27;7.47;;;11.90;81.60;;;;;;5038293;28;20099;-75
2021/05/09 05:08:24;;;;;;;8.20;6.88;;;11.90;81.60;;;;;;5054524;28;20409;-76
2021/05/09 05:10:50;;;;;;;8.52;7.03;;;11.90;81.70;;;;;;5054531;28;20049;-76
2021/05/09 05:13:23;;;;;;;8.52;7.40;;;11.90;81.60;;;;;;5054575;28;20444;-78
2021/05/09 05:15:53;;;;;;;10.13;7.32;;;11.90;81.80;;;;;;5037673;28;20559;-76
2021/05/09 05:18:19;;;;;;;10.70;7.35;;;12.00;81.60;;;;;;5053999;28;20063;-75
2021/05/09 05:20:45;;;;;;;9.68;7.80;;;12.00;81.70;;;;;;5054461;28;20045;-75
2021/05/09 05:23:11;;;;;;;11.95;8.23;;;12.00;81.90;;;;;;5054125;28;20409;-76
2021/05/09 05:25:37;;;;;;;9.10;7.20;;;12.10;81.90;;;;;;5054130;28;20118;-75
2021/05/09 05:28:04;;;;;;;11.35;7.45;;;12.10;82.10;;;;;;5054691;28;20127;-76
2021/05/09 05:30:30;;;;;;;8.98;7.30;;;12.10;82.10;;;;;;5037343;28;20045;-76
2021/05/09 05:32:57;;;;;;;8.23;7.15;;;12.20;82.40;;;;;;5054219;28;20052;-77
2021/05/09 05:35:24;;;;;;;8.93;7.55;;;12.20;82.40;;;;;;5053377;28;20067;-77
2021/05/09 05:37:51;;;;;;;11.00;8.00;;;12.20;82.60;;;;;;5055258;28;20052;-76
2021/05/09 05:40:17;;;;;;;12.25;7.80;;;12.30;82.80;;;;;;5054864;28;20136;-77
2021/05/09 05:42:43;;;;;;;11.00;7.68;;;12.30;82.90;;;;;;5054361;28;20052;-76
2021/05/09 05:45:09;;;;;;;10.75;7.90;;;12.30;82.70;;;;;;5054232;28;20041;-77
2021/05/09 05:47:35;;;;;;;9.82;8.20;;;12.30;82.70;;;;;;5054183;28;20478;-76
2021/05/09 05:50:01;;;;;;;11.68;8.85;;;12.40;83.00;;;;;;5053574;28;20082;-76
2021/05/09 05:52:27;;;;;;;10.60;8.35;;;12.40;83.20;;;;;;5054503;28;20474;-77
2021/05/09 05:54:53;;;;;;;10.55;8.95;;;12.50;83.20;;;;;;5053961;28;20053;-76
2021/05/09 05:57:18;;;;;;;11.68;8.65;;;12.50;83.30;;;;;;5053276;28;20064;-77
2021/05/09 05:59:45;;;;;;;10.98;8.70;;;12.60;83.20;;;;;;5070393;28;20049;-75
2021/05/09 06:02:11;;;;;;;9.27;8.35;;;12.60;83.20;;;;;;5054658;28;20049;-75
2021/05/09 06:04:40;;;;;;;10.50;9.02;;;12.70;83.10;;;;;;5052944;28;20529;-76
2021/05/09 06:07:11;;;;;;;10.63;9.18;;;12.70;83.20;;;;;;5053138;28;20041;-76
2021/05/09 06:09:37;;;;;;;13.55;9.85;;;12.80;83.40;;;;;;5052808;28;20047;-77
2021/05/09 06:12:03;;;;;;;10.45;9.07;;;12.80;83.40;;;;;;5052963;28;20120;-74
2021/05/09 06:14:30;;;;;;;10.60;9.07;;;12.90;83.70;;;;;;5054374;28;20048;-75
2021/05/09 06:16:55;;;;;;;13.15;10.30;;;12.90;83.80;;;;;;5053156;28;20058;-77
2021/05/09 06:19:21;;;;;;;13.07;9.68;;;13.00;83.90;;;;;;5053244;28;20124;-75
2021/05/09 06:21:47;;;;;;;11.07;9.23;;;13.00;83.80;;;;;;5052626;28;20147;-77
2021/05/09 06:24:13;;;;;;;13.38;10.60;;;13.10;83.90;;;;;;5053484;28;20045;-76
2021/05/09 06:26:38;;;;;;;12.98;9.65;;;13.10;83.90;;;;;;5053594;28;20048;-76
2021/05/09 06:29:04;;;;;;;12.35;10.10;;;13.20;83.90;;;;;;5052200;28;20108;-76
2021/05/09 06:31:30;;;;;;;11.05;9.95;;;13.30;84.10;;;;;;5053127;28;20036;-76
2021/05/09 06:33:56;;;;;;;12.68;9.77;;;13.30;84.10;;;;;;5054334;28;20139;-76
2021/05/09 06:36:22;;;;;;;11.65;9.25;;;13.40;84.10;;;;;;5052497;28;20049;-75
2021/05/09 06:38:48;;;;;;;13.75;10.30;;;13.40;84.10;;;;;;5053465;28;20107;-75
2021/05/09 06:41:14;;;;;;;12.30;9.50;;;13.50;84.00;;;;;;5052651;28;20114;-77
2021/05/09 06:43:39;;;;;;;15.75;9.98;;;13.60;84.10;;;;;;5052150;28;20445;-78
2021/05/09 06:46:05;;;;;;;13.00;9.27;;;13.60;83.90;;;;;;5054687;28;20041;-75
2021/05/09 06:48:31;;;;;;;11.18;9.57;;;13.70;83.80;;;;;;5052002;28;20087;-75
2021/05/09 06:50:57;;;;;;;13.00;9.25;;;13.80;83.90;;;;;;5053201;28;20041;-76
2021/05/09 06:53:23;;;;;;;14.57;9.55;;;13.90;84.00;;;;;;5053073;28;20044;-76
2021/05/09 06:55:50;;;;;;;13.48;9.98;;;14.00;83.80;;;;;;5052285;28;20102;-76
2021/05/09 06:58:17;;;;;;;11.80;9.20;;;14.00;83.70;;;;;;5052866;28;20059;-76
2021/05/09 07:00:46;;;;;;;11.90;9.35;;;14.10;83.60;;;;;;5054613;28;20048;-75
2021/05/09 07:03:12;;;;;;;10.40;8.98;;;14.20;83.50;;;;;;5069455;28;20049;-76
2021/05/09 07:05:38;;;;;;;16.17;9.40;;;14.30;83.60;;;;;;5053883;28;20508;-77
2021/05/09 07:08:04;;;;;;;11.70;9.13;;;14.40;83.30;;;;;;5054322;28;20072;-76
2021/05/09 07:10:32;;;;;;;11.75;9.20;;;14.50;83.10;;;;;;5054134;28;20045;-75
2021/05/09 07:12:58;;;;;;;9.55;8.60;;;14.60;83.10;;;;;;5069725;28;20378;-75
2021/05/09 07:15:27;;;;;;;12.55;8.70;;;14.70;83.10;;;;;;5053624;28;20071;-77
2021/05/09 07:18:06;;;;;;;11.52;8.73;;;14.80;82.80;;;;;;5052740;28;20365;-75
2021/05/09 07:20:35;;;;;;;10.75;8.75;;;14.90;82.50;;;;;;5052817;28;20044;-79
2021/05/09 07:23:01;;;;;;;13.05;8.60;;;15.00;82.50;;;;;;5053320;28;20099;-77
2021/05/09 07:25:27;;;;;;;14.40;9.77;;;15.10;82.30;;;;;;5053499;28;20240;-76
2021/05/09 07:28:03;;;;;;;11.07;8.27;;;15.10;82.20;;;;;;5051049;28;20072;-76
2021/05/09 07:30:29;;;;;;;10.88;8.15;;;15.20;82.10;;;;;;5050617;28;20052;-76
2021/05/09 07:32:55;;;;;;;13.50;8.07;;;15.30;82.00;;;;;;5049635;28;20048;-76
2021/05/09 07:35:22;;;;;;;11.80;8.45;;;15.40;82.00;;;;;;5050618;28;20048;-76
2021/05/09 07:37:48;;;;;;;9.60;7.95;;;15.50;81.90;;;;;;5050499;28;20057;-77
2021/05/09 07:40:14;;;;;;;10.63;7.85;;;15.60;81.70;;;;;;5050029;28;20394;-77
2021/05/09 07:42:40;;;;;;;11.00;7.85;;;15.60;81.60;;;;;;5051665;28;20041;-75
2021/05/09 07:45:08;;;;;;;11.38;8.23;;;15.70;81.40;;;;;;5053837;28;20048;-76
2021/05/09 07:47:34;;;;;;;10.20;7.53;;;15.80;81.40;;;;;;5036683;28;20052;-74
2021/05/09 07:50:00;;;;;;;9.60;7.55;;;15.80;81.00;;;;;;5035613;28;20041;-76
2021/05/09 07:52:25;;;;;;;9.30;7.10;;;15.90;80.60;;;;;;5052595;28;20411;-76
2021/05/09 07:54:51;;;;;;;9.63;6.70;;;16.00;80.40;;;;;;5052961;28;20073;-77
2021/05/09 07:57:17;;;;;;;10.13;6.80;;;16.00;80.20;;;;;;5054269;28;20864;-77
2021/05/09 07:59:43;;;;;;;9.52;6.43;;;16.10;80.00;;;;;;5053734;28;20424;-76
2021/05/09 08:02:09;;;;;;;8.25;6.35;;;16.20;79.70;;;;;;5069289;28;20067;-77
2021/05/09 08:04:35;;;;;;;8.13;6.25;;;16.20;79.50;;;;;;5069312;28;20144;-75
2021/05/09 08:07:01;;;;;;;9.82;6.78;;;16.30;79.30;;;;;;5052881;28;20072;-76
2021/05/09 08:09:27;;;;;;;8.02;6.55;;;16.30;79.10;;;;;;5035912;28;20099;-78
2021/05/09 08:11:52;;;;;;;11.05;6.90;;;16.30;78.90;;;;;;5068320;28;20115;-76
2021/05/09 08:14:18;;;;;;;8.48;6.00;;;16.40;78.80;;;;;;5052602;28;20045;-77
2021/05/09 08:16:49;;;;;;;7.38;6.03;;;16.40;78.60;;;;;;5051143;28;20375;-76
2021/05/09 08:19:16;;;;;;;9.38;6.15;;;16.40;78.60;;;;;;5035704;28;20057;-75
2021/05/09 08:21:45;;;;;;;8.43;5.72;;;16.50;78.60;;;;;;5051859;28;20401;-79
2021/05/09 08:24:14;;;;;;;7.72;5.55;;;16.50;78.20;;;;;;5053069;28;20095;-79
2021/05/09 08:26:42;;;;;;;8.63;6.32;;;16.50;78.00;;;;;;5053237;28;20496;-76
2021/05/09 08:29:08;;;;;;;7.30;5.55;;;16.50;77.90;;;;;;5051289;28;20053;-77
2021/05/09 08:31:35;;;;;;;7.07;5.85;;;16.60;77.80;;;;;;5051877;28;20048;-77
2021/05/09 08:34:01;;;;;;;8.15;5.55;;;16.60;77.50;;;;;;5052629;28;20130;-76
2021/05/09 08:36:26;;;;;;;6.30;5.68;;;16.60;77.20;;;;;;5052805;28;20096;-76
2021/05/09 08:38:52;;;;;;;7.38;6.32;;;16.70;77.00;;;;;;5054342;28;20052;-76
2021/05/09 08:41:18;;;;;;;7.05;5.25;;;16.70;76.50;;;;;;5053198;28;20045;-77
2021/05/09 08:43:46;;;;;;;6.47;5.15;;;16.80;76.30;;;;;;5051501;28;20453;-75
2021/05/09 08:46:14;;;;;;;8.68;5.97;;;16.80;76.20;;;;;;5052254;28;20079;-75
2021/05/09 08:48:41;;;;;;;5.95;4.95;;;16.90;76.20;;;;;;5068035;28;20049;-77
2021/05/09 08:51:06;;;;;;;5.93;4.95;;;17.00;76.30;;;;;;5034746;28;20512;-75
2021/05/09 08:53:35;;;;;;;7.35;4.90;;;17.10;75.90;;;;;;5054668;28;20048;-75
2021/05/09 08:56:01;;;;;;;6.35;4.63;;;17.10;75.70;;;;;;5054673;28;20051;-77
2021/05/09 08:58:26;;;;;;;5.75;4.18;;;17.20;75.50;;;;;;5055484;28;20521;-79
2021/05/09 09:00:52;;;;;;;4.93;3.75;;;17.40;75.30;;;;;;5038446;28;20049;-76
2021/05/09 09:03:18;;;;;;;6.35;3.97;;;17.50;74.80;;;;;;5054635;28;20477;-76
2021/05/09 09:05:45;;;;;;;5.45;4.18;;;17.60;74.60;;;;;;5038587;28;20067;-75
2021/05/09 09:08:15;;;;;;;6.63;3.92;;;17.80;74.50;;;;;;5055924;28;20124;-76
2021/05/09 09:10:46;;;;;;;6.05;4.07;;;18.00;74.20;;;;;;5054357;28;20053;-75
2021/05/09 09:13:39;;;;;;;7.45;3.20;;;18.20;74.30;;;;;;5054483;28;20052;-76
2021/05/09 09:16:05;;;;;;;5.80;3.45;;;18.50;73.60;;;;;;5053137;28;20566;-75
2021/05/09 09:18:38;;;;;;;4.85;3.58;;;18.70;73.60;;;;;;5053901;28;20124;-78
2021/05/09 09:21:23;;;;;;;5.43;3.25;;;18.90;73.40;;;;;;5070829;28;20061;-76
2021/05/09 09:23:54;;;;;;;4.70;3.20;;;19.10;73.40;;;;;;5054861;28;20037;-78
2021/05/09 09:26:39;;;;;;;4.40;3.35;;;19.30;72.20;;;;;;5053504;28;20048;-76
2021/05/09 09:29:20;;;;;;;4.68;3.10;;;19.50;71.60;;;;;;5054680;28;20043;-75
2021/05/09 09:31:47;;;;;;;4.50;3.30;;;19.70;70.80;;;;;;5053655;28;20045;-75
2021/05/09 09:34:13;;;;;;;5.30;3.47;;;19.80;70.70;;;;;;5054218;28;20045;-76
2021/05/09 09:36:39;;;;;;;5.25;3.30;;;19.90;69.90;;;;;;5053651;28;20048;-77
2021/05/09 09:39:06;;;;;;;5.13;3.25;;;20.00;69.50;;;;;;5037824;28;20048;-77
2021/05/09 09:41:32;;;;;;;6.18;2.92;;;20.00;69.00;;;;;;5038212;28;20457;-78
2021/05/09 09:44:08;;;;;;;7.32;3.22;;;20.10;68.50;;;;;;5054420;28;20120;-78
2021/05/09 09:46:40;;;;;;;6.80;2.55;;;20.10;67.20;;;;;;5054346;28;20052;-77
2021/05/09 09:49:20;;;;;;;4.43;2.80;;;20.10;66.10;;;;;;5052855;28;20056;-76
2021/05/09 09:51:50;;;;;;;5.85;2.78;;;20.20;65.40;;;;;;5054222;28;20048;-77
2021/05/09 09:54:42;;;;;;;4.78;2.88;;;20.30;66.20;;;;;;5054236;28;20051;-77
2021/05/09 09:57:22;;;;;;;5.05;3.05;;;20.40;66.50;;;;;;5052987;28;20095;-77
2021/05/09 10:00:11;;;;;;;5.35;3.15;;;20.60;67.20;;;;;;5053478;28;20044;-76
2021/05/09 10:02:38;;;;;;;4.88;2.78;;;20.80;66.10;;;;;;5052440;28;20131;-76
2021/05/09 10:05:04;;;;;;;4.05;2.25;;;20.90;66.90;;;;;;5036742;28;20565;-75
2021/05/09 10:07:31;;;;;;;3.92;2.78;;;21.10;66.40;;;;;;5054170;28;20041;-76
2021/05/09 10:09:56;;;;;;;4.72;2.78;;;21.30;66.00;;;;;;5053674;28;20051;-76
2021/05/09 10:12:25;;;;;;;3.65;2.50;;;21.30;65.10;;;;;;5068895;28;20041;-76
2021/05/09 10:14:51;;;;;;;4.15;2.70;;;21.40;64.80;;;;;;5053357;28;20041;-75
2021/05/09 10:17:20;;;;;;;5.93;2.40;;;21.50;64.80;;;;;;5054483;28;20041;-76
2021/05/09 10:19:45;;;;;;;4.40;2.50;;;21.70;64.60;;;;;;5053826;28;20099;-75
2021/05/09 10:22:35;;;;;;;4.95;2.47;;;21.90;64.40;;;;;;5053424;28;20041;-76
2021/05/09 10:25:04;;;;;;;4.30;2.13;;;22.10;63.40;;;;;;5053453;28;20045;-77
2021/05/09 10:27:42;;;;;;;3.88;2.25;;;22.20;63.50;;;;;;5052989;28;20037;-76
2021/05/09 10:30:12;;;;;;;4.32;2.30;;;22.40;61.90;;;;;;5052954;28;20067;-76
2021/05/09 10:32:37;;;;;;;6.35;2.70;;;22.60;62.80;;;;;;5053019;28;20058;-77
2021/05/09 10:35:04;;;;;;;4.03;2.17;;;22.70;62.30;;;;;;5052288;28;20405;-76
2021/05/09 10:37:40;;;;;;;3.92;1.88;;;22.90;62.30;;;;;;5051795;28;20128;-77
2021/05/09 10:40:37;;;;;;;5.20;2.25;;;23.00;61.90;;;;;;5051577;28;20504;-82
2021/05/09 10:45:39;;;;;;;3.35;1.77;;;23.30;61.10;;;;;;5051640;28;20446;-76
2021/05/09 10:50:55;;;;;;;2.47;1.70;;;23.70;59.40;;;;;;5053480;28;20049;-76
2021/05/09 10:53:40;;;;;;;4.47;1.90;;;23.90;59.60;;;;;;5052632;28;20458;-78
2021/05/09 10:56:15;;;;;;;3.90;2.00;;;24.10;58.50;;;;;;5052718;28;20041;-75
2021/05/09 10:58:50;;;;;;;4.57;1.98;;;24.30;57.80;;;;;;5052802;28;20547;-77
2021/05/09 11:01:20;;;;;;;3.17;1.70;;;24.50;58.10;;;;;;5052143;28;20036;-78
2021/05/09 11:03:55;;;;;;;3.38;1.63;;;24.60;56.60;;;;;;5051672;28;20186;-76
2021/05/09 11:06:21;;;;;;;3.58;2.08;;;24.70;56.20;;;;;;5052775;28;20041;-76
2021/05/09 11:08:48;;;;;;;2.67;1.75;;;24.70;56.20;;;;;;5053068;28;20398;-76
2021/05/09 11:11:29;;;;;;;3.63;2.05;;;24.70;55.80;;;;;;5050862;28;20473;-77
2021/05/09 11:14:00;;;;;;;3.00;1.70;;;24.70;54.60;;;;;;5052291;28;20063;-76
2021/05/09 11:16:35;;;;;;;;;;;24.80;54.60;;;;;;5052820;28;20047;-76
2021/05/09 11:19:07;;;;;;;2.17;1.90;;;25.00;55.90;;;;;;5051797;28;19970;-78
2021/05/09 11:21:56;;;;;;;4.57;2.33;;;25.30;55.60;;;;;;5019078;28;20135;-78
2021/05/09 11:24:29;;;;;;;2.60;2.10;;;25.50;54.10;;;;;;5053239;28;20043;-78
2021/05/09 11:26:56;;;;;;;2.80;2.22;;;25.70;53.50;;;;;;5053064;28;20095;-76
2021/05/09 11:29:23;;;;;;;3.45;2.38;;;26.00;53.50;;;;;;5051471;28;20120;-76
2021/05/09 11:31:54;;;;;;;4.07;2.10;;;26.30;52.80;;;;;;5051809;28;20425;-75
2021/05/09 11:34:21;;;;;;;3.55;2.05;;;26.70;52.50;;;;;;5051380;28;20041;-75
2021/05/09 11:36:51;;;;;;;2.97;1.92;;;27.00;52.60;;;;;;5035579;28;20102;-77
2021/05/09 11:39:35;;;;;;;4.03;2.00;;;27.20;51.80;;;;;;5035441;28;20045;-77
2021/05/09 11:42:09;;;;;;;4.82;2.28;;;27.40;50.90;;;;;;5053831;28;20211;-78
2021/05/09 11:44:53;;;;;;;3.10;1.92;;;27.60;51.00;;;;;;5019653;28;20249;-75
2021/05/09 11:47:23;;;;;;;3.42;1.92;;;27.60;50.70;;;;;;5051683;28;20045;-75
2021/05/09 11:49:49;;;;;;;4.45;2.17;;;27.60;50.50;;;;;;5068155;28;20069;-76
2021/05/09 11:52:21;;;;;;;4.25;2.33;;;27.70;50.10;;;;;;5034565;28;20049;-80
2021/05/09 11:54:57;;;;;;;3.78;2.22;;;27.80;50.00;;;;;;5053486;28;20073;-78
2021/05/09 11:57:38;;;;;;;3.55;1.98;;;27.90;49.40;;;;;;5034568;28;20061;-77
2021/05/09 12:00:11;;;;;;;3.08;2.25;;;28.00;49.40;;;;;;5052858;28;20152;-76
2021/05/09 12:02:40;;;;;;;3.75;2.28;;;27.90;48.60;;;;;;5051893;28;20051;-78
2021/05/09 12:05:13;;;;;;;2.92;2.00;;;27.80;48.60;;;;;;5050778;28;20048;-77
2021/05/09 12:07:52;;;;;;;3.65;2.17;;;27.70;49.00;;;;;;5035416;28;20147;-77
2021/05/09 12:10:25;;;;;;;3.30;2.13;;;27.60;47.60;;;;;;5051836;28;20051;-88
2021/05/09 12:12:54;;;;;;;;;;;27.60;48.30;;;;;;5052792;28;20047;-77
2021/05/09 12:15:20;;;;;;;3.70;2.50;;;27.60;48.70;;;;;;5051758;28;19921;-85
2021/05/09 12:17:52;;;;;;;2.97;1.92;;;27.70;49.70;;;;;;5069167;28;20041;-76
2021/05/09 12:20:43;;;;;;;3.83;2.13;;;27.60;49.10;;;;;;5053444;28;20459;-76
2021/05/09 12:23:18;;;;;;;5.30;2.30;;;27.60;48.10;;;;;;5035621;28;20049;-77
2021/05/09 12:25:47;;;;;;;2.85;2.28;;;27.60;48.00;;;;;;5052556;28;20037;-77
2021/05/09 12:28:17;;;;;;;2.80;2.22;;;27.50;48.60;;;;;;5039143;28;20113;-78
2021/05/09 12:30:46;;;;;;;3.00;2.05;;;27.40;48.00;;;;;;5038622;28;20045;-77
2021/05/09 12:33:12;;;;;;;3.88;2.75;;;27.30;48.50;;;;;;5056443;28;20083;-77
2021/05/09 12:35:49;;;;;;;3.72;2.28;;;27.20;48.50;;;;;;5054486;28;20100;-77
2021/05/09 12:38:30;;;;;;;3.25;2.40;;;27.20;48.50;;;;;;5054912;28;20210;-77
2021/05/09 12:41:10;;;;;;;3.95;2.72;;;27.10;48.10;;;;;;5039340;28;20053;-76
2021/05/09 12:43:52;;;;;;;3.85;2.35;;;26.90;48.60;;;;;;5038612;28;20064;-76
2021/05/09 12:46:45;;;;;;;4.75;2.75;;;26.70;49.00;;;;;;5038004;28;20057;-76
2021/05/09 12:49:11;;;;;;;3.50;2.65;;;26.50;48.60;;;;;;5039182;28;20070;-77
2021/05/09 12:51:48;;;;;;;3.88;2.20;;;26.30;49.90;;;;;;5056155;28;20486;-76
2021/05/09 12:54:32;;;;;;;3.10;2.80;;;26.10;49.10;;;;;;5055105;28;20091;-78
2021/05/09 12:57:16;;;;;;;4.50;2.60;;;25.90;49.30;;;;;;5054836;28;20053;-79
2021/05/09 12:59:51;;;;;;;3.53;2.60;;;25.70;49.60;;;;;;5022100;28;20049;-76